»·PEaware :: DAL1073 KSLC-KSFO

DAL1073 :: KSLC-KSFO

FLIGHT INFORMATION

Flight Status: Arrived
Operator:
Delta Air Lines
More flights by this operator :: More flights under this callsign
Pilot: Ben F. (2808)
Aircraft: BOEING 727-200
(B722)
More flights by this aircraft type
Origin: KSLC Salt Lake City Intl
United States
Destination: KSFO San Francisco Intl
United States
More flights between these airports :: More routes between these airports
Route: SLC4 BVL J154 BAM J32 FMG MOD8
File this flight plan on PilotEdge
Remarks:
Altitude:
(Current/Filed)
32,000ft
Speed:
(Current/Filed)
476kts
Departed: 17-Nov-18 09:14 AM
Arrived: 17-Nov-18 10:46 AM
Distance/Time
Traveled:
519nm/1:32
Distance/Time
To Go:
Arrived

Flight Plot

Page will automatically refresh every two minutes.

Flight plan parsing failed; only flown route is shown


Map Options




Map Legend


Flown Route
Filed Route
Departure Airport
Arrival Airport
Navaid (VOR, NDB)
Fix

Horizontal Profiles

Position Reports

Time Latitude Longitude Heading Altitude Ground
Speed
17-Nov-18 08:57 40.788495 -111.980699 283 4239ft 0kts
17-Nov-18 08:58 40.788495 -111.980699 283 4239ft 0kts
17-Nov-18 08:59 40.788495 -111.980699 283 4239ft 0kts
17-Nov-18 09:00 40.788495 -111.980699 283 4239ft 0kts
17-Nov-18 09:01 40.788495 -111.980699 283 4239ft 0kts
17-Nov-18 09:02 40.788495 -111.980699 283 4239ft 0kts
17-Nov-18 09:03 40.788495 -111.980699 283 4239ft 0kts
17-Nov-18 09:04 40.788495 -111.980699 283 4239ft 0kts
17-Nov-18 09:05 40.788327 -111.980147 302 4239ft 2kts
17-Nov-18 09:06 40.788031 -111.980063 19 4239ft 0kts
17-Nov-18 09:07 40.788031 -111.980062 19 4239ft 0kts
17-Nov-18 09:08 40.788031 -111.980062 19 4239ft 0kts
17-Nov-18 09:09 40.788216 -111.979976 19 4239ft 6kts
17-Nov-18 09:10 40.789305 -111.979846 17 4239ft 6kts
17-Nov-18 09:11 40.789690 -111.978533 84 4239ft 0kts
17-Nov-18 09:12 40.789703 -111.978354 84 4239ft 8kts
17-Nov-18 09:13 40.794702 -111.977630 354 4239ft 27kts
17-Nov-18 09:14 40.802189 -111.978488 2 4238ft 26kts
17-Nov-18 09:15 40.807111 -111.978515 29 4238ft 0kts
17-Nov-18 09:16 40.807273 -111.978356 44 4239ft 8kts
17-Nov-18 09:17 40.805210 -111.976683 175 4239ft 51kts
17-Nov-18 09:18 40.765428 -111.972156 178 5241ft 176kts
17-Nov-18 09:19 40.709404 -111.964554 173 6856ft 245kts
17-Nov-18 09:20 40.640964 -111.958042 188 9686ft 256kts
17-Nov-18 09:21 40.610097 -112.034949 265 11615ft 288kts
17-Nov-18 09:22 40.611119 -112.149280 273 13242ft 335kts
17-Nov-18 09:23 40.618636 -112.265143 276 16367ft 321kts
17-Nov-18 09:24 40.627746 -112.380234 276 18357ft 331kts
17-Nov-18 09:25 40.637127 -112.501173 276 20209ft 340kts
17-Nov-18 09:26 40.646673 -112.626141 276 21856ft 348kts
17-Nov-18 09:27 40.656073 -112.751007 275 23307ft 355kts
17-Nov-18 09:28 40.665716 -112.881160 276 24580ft 364kts
17-Nov-18 09:29 40.675452 -113.014555 276 25654ft 373kts
17-Nov-18 09:30 40.685336 -113.152068 276 26697ft 379kts
17-Nov-18 09:31 40.695157 -113.291157 276 27655ft 385kts
17-Nov-18 09:32 40.704955 -113.432419 276 28517ft 390kts
17-Nov-18 09:33 40.714659 -113.574882 276 29338ft 393kts
17-Nov-18 09:34 40.724064 -113.715541 276 30017ft 397kts
17-Nov-18 09:35 40.722797 -113.860294 269 30823ft 397kts
17-Nov-18 09:36 40.717572 -114.003211 269 31552ft 396kts
17-Nov-18 09:37 40.711929 -114.147455 269 32182ft 397kts
17-Nov-18 09:38 40.705954 -114.295174 269 32210ft 411kts
17-Nov-18 09:39 40.699600 -114.447214 269 32208ft 424kts
17-Nov-18 09:40 40.692864 -114.604116 269 32206ft 435kts
17-Nov-18 09:41 40.685853 -114.762530 268 32213ft 445kts
17-Nov-18 09:42 40.678443 -114.924771 268 32209ft 446kts
17-Nov-18 09:43 40.670838 -115.087630 268 32206ft 446kts
17-Nov-18 09:44 40.662998 -115.250638 268 32207ft 447kts
17-Nov-18 09:45 40.654911 -115.413930 268 32206ft 447kts
17-Nov-18 09:46 40.646877 -115.571717 268 32204ft 449kts
17-Nov-18 09:47 40.638541 -115.731093 267 32211ft 450kts
17-Nov-18 09:48 40.631178 -115.868481 267 32210ft 452kts
17-Nov-18 09:49 40.622206 -116.031877 267 32209ft 454kts
17-Nov-18 09:50 40.611276 -116.225426 267 32211ft 455kts
17-Nov-18 09:51 40.603271 -116.363634 267 32222ft 455kts
17-Nov-18 09:52 40.591796 -116.556921 267 32228ft 455kts
17-Nov-18 09:53 40.583631 -116.691177 267 32238ft 454kts
17-Nov-18 09:54 40.573382 -116.856012 267 32237ft 455kts
17-Nov-18 09:55 40.544149 -117.017137 254 32236ft 458kts
17-Nov-18 09:56 40.503242 -117.175858 254 32235ft 459kts
17-Nov-18 09:57 40.461688 -117.334402 254 32234ft 460kts
17-Nov-18 09:58 40.419796 -117.493107 254 32234ft 462kts
17-Nov-18 09:59 40.378097 -117.650067 253 32233ft 463kts
17-Nov-18 10:00 40.336288 -117.806447 253 32239ft 466kts
17-Nov-18 10:01 40.293308 -117.966199 253 32224ft 468kts
17-Nov-18 10:02 40.250114 -118.125725 253 32210ft 469kts
17-Nov-18 10:03 40.206379 -118.286223 253 32208ft 469kts
17-Nov-18 10:04 40.162332 -118.446846 253 32207ft 469kts
17-Nov-18 10:05 40.111159 -118.602664 239 32220ft 473kts
17-Nov-18 10:06 40.039186 -118.738712 238 32213ft 474kts
17-Nov-18 10:07 39.963076 -118.878663 238 32211ft 475kts
17-Nov-18 10:08 39.889780 -119.012630 237 32206ft 477kts
17-Nov-18 10:09 39.816995 -119.145050 237 32207ft 477kts
17-Nov-18 10:10 39.740317 -119.283981 237 32207ft 479kts
17-Nov-18 10:11 39.662808 -119.423806 237 32206ft 480kts
17-Nov-18 10:12 39.585277 -119.563055 237 32208ft 481kts
17-Nov-18 10:13 39.489165 -119.671609 203 32244ft 495kts
17-Nov-18 10:14 39.360621 -119.729170 201 32234ft 499kts
17-Nov-18 10:15 39.229616 -119.783941 200 32221ft 502kts
17-Nov-18 10:16 39.097353 -119.838805 200 32216ft 504kts
17-Nov-18 10:17 38.964372 -119.893726 201 32213ft 505kts
17-Nov-18 10:18 38.835782 -119.946641 201 32208ft 503kts
17-Nov-18 10:19 38.706645 -119.999574 201 32208ft 501kts
17-Nov-18 10:20 38.575374 -120.053181 201 32208ft 500kts
17-Nov-18 10:21 38.447686 -120.105129 201 32154ft 499kts
17-Nov-18 10:22 38.317743 -120.157801 200 32127ft 497kts
17-Nov-18 10:23 38.187893 -120.210231 200 32127ft 496kts
17-Nov-18 10:24 38.057257 -120.262803 200 30632ft 498kts
17-Nov-18 10:25 37.926581 -120.315176 200 28653ft 496kts
17-Nov-18 10:26 37.803588 -120.364288 200 26780ft 496kts
17-Nov-18 10:27 37.702602 -120.462719 249 24800ft 477kts
17-Nov-18 10:28 37.672371 -120.621155 261 22828ft 465kts
17-Nov-18 10:29 37.653229 -120.763387 261 21341ft 431kts
17-Nov-18 10:30 37.634884 -120.903101 261 20120ft 393kts
17-Nov-18 10:31 37.619776 -121.028033 262 19370ft 355kts
17-Nov-18 10:32 37.606222 -121.147769 262 17378ft 346kts
17-Nov-18 10:33 37.592849 -121.264769 262 15246ft 335kts
17-Nov-18 10:34 37.580258 -121.373965 262 13268ft 313kts
17-Nov-18 10:35 37.568323 -121.476647 262 11008ft 289kts
17-Nov-18 10:36 37.557136 -121.572357 262 11353ft 283kts
17-Nov-18 10:37 37.540264 -121.668770 254 10597ft 280kts
17-Nov-18 10:38 37.519786 -121.755206 253 9098ft 252kts
17-Nov-18 10:39 37.501006 -121.833524 253 7991ft 222kts
17-Nov-18 10:40 37.483233 -121.907613 251 7715ft 235kts
17-Nov-18 10:41 37.470081 -121.985145 271 6274ft 229kts
17-Nov-18 10:42 37.488329 -122.060163 297 4766ft 236kts
17-Nov-18 10:43 37.516384 -122.126143 298 4186ft 212kts
17-Nov-18 10:44 37.541882 -122.186836 298 3094ft 172kts
17-Nov-18 10:45 37.561467 -122.233379 299 2213ft 139kts
17-Nov-18 10:46 37.579775 -122.276758 299 1459ft 139kts
17-Nov-18 10:47 37.597036 -122.317878 298 740ft 131kts
17-Nov-18 10:48 37.613889 -122.358032 299 76ft 132kts
17-Nov-18 10:49 37.620793 -122.377722 229 25ft 16kts
17-Nov-18 10:50 37.619733 -122.379210 228 25ft 0kts
17-Nov-18 10:51 37.617777 -122.379487 169 25ft 12kts
17-Nov-18 10:52 37.615607 -122.381411 296 25ft 9kts
17-Nov-18 10:53 37.615564 -122.382626 225 25ft 0kts
17-Nov-18 10:54 37.615564 -122.382626 225 25ft 0kts

Navigation Log

Ident Type
Flight plan parsing failed, navigation log unavailable